Time;durP1;ratioP1;P1;durP2;ratioP2;P2;SDS_P1;SDS_P2;PMS_P1;PMS_P2;Temp;Humidity;BMP_temperature;BMP_pressure;BME280_temperature;BME280_humidity;BME280_pressure;Samples;Min_cycle;Max_cycle;Signal;HPM_P1;HPM_P2
2022/11/12 00:00:16;;;;;;;39.48;23.80;;;;;;;3.80;79.25;101648.84;1721719;81;22381;-74
2022/11/12 00:03:02;;;;;;;35.10;24.25;;;;;;;3.84;79.34;101651.30;1737099;81;20951;-74
2022/11/12 00:05:49;;;;;;;37.55;25.50;;;;;;;3.89;79.44;101653.78;1726668;81;21059;-74
2022/11/12 00:08:35;;;;;;;33.45;25.32;;;;;;;3.90;79.41;101655.04;1723467;83;20976;-74
2022/11/12 00:11:21;;;;;;;39.42;28.47;;;;;;;3.91;79.45;101656.75;1724297;81;21119;-74
2022/11/12 00:14:06;;;;;;;38.63;29.57;;;;;;;3.92;79.39;101656.30;1723758;81;22490;-75
2022/11/12 00:16:51;;;;;;;38.25;28.60;;;;;;;3.84;79.14;101650.45;1719586;81;21471;-74
2022/11/12 00:19:37;;;;;;;35.05;25.40;;;;;;;3.76;79.14;101651.98;1723165;83;21071;-74
2022/11/12 00:22:22;;;;;;;108.07;29.82;;;;;;;3.76;79.27;101651.98;1721244;83;21067;-74
2022/11/12 00:25:08;;;;;;;78.97;36.28;;;;;;;3.78;79.36;101657.19;1717812;81;20949;-74
2022/11/12 00:27:52;;;;;;;61.18;33.63;;;;;;;3.76;79.28;101663.74;1721870;82;21737;-74
2022/11/12 00:30:39;;;;;;;75.85;30.50;;;;;;;3.72;79.20;101665.61;1719019;81;20961;-74
2022/11/12 00:33:24;;;;;;;121.33;32.03;;;;;;;3.68;79.16;101657.92;1721913;81;21020;-74
2022/11/12 00:36:10;;;;;;;270.67;40.15;;;;;;;3.64;79.21;101656.28;1719676;81;21012;-74
2022/11/12 00:38:55;;;;;;;285.50;39.20;;;;;;;3.60;79.17;101658.14;1721880;82;20964;-74
2022/11/12 00:41:41;;;;;;;246.00;35.95;;;;;;;3.57;79.18;101650.41;1718596;81;21848;-74
2022/11/12 00:44:26;;;;;;;191.12;31.85;;;;;;;3.53;79.09;101652.69;1712221;83;21073;-74
2022/11/12 00:47:11;;;;;;;190.92;37.65;;;;;;;3.45;78.91;101658.13;1709652;82;21008;-74
2022/11/12 00:49:57;;;;;;;137.37;28.55;;;;;;;3.34;78.77;101665.43;1709015;83;21013;-74
2022/11/12 00:52:42;;;;;;;234.22;32.93;;;;;;;3.25;78.70;101664.39;1698800;83;21004;-74
2022/11/12 00:55:27;;;;;;;245.78;46.45;;;;;;;3.16;78.66;101668.56;1709990;82;22480;-74
2022/11/12 00:58:11;;;;;;;243.85;52.53;;;;;;;3.11;78.73;101665.23;1704930;83;20993;-74
2022/11/12 01:00:56;;;;;;;232.32;29.67;;;;;;;3.06;78.83;101671.02;1710315;82;21359;-74
2022/11/12 01:03:41;;;;;;;238.45;25.40;;;;;;;3.03;79.07;101667.20;1706311;82;20973;-74
2022/11/12 01:06:26;;;;;;;212.17;23.18;;;;;;;2.99;79.22;101674.27;1718444;82;21074;-74
2022/11/12 01:09:11;;;;;;;202.75;22.25;;;;;;;2.98;79.30;101667.77;1706174;82;22619;-74
2022/11/12 01:11:56;;;;;;;196.15;22.10;;;;;;;2.96;79.30;101661.28;1699360;82;21099;-74
2022/11/12 01:14:41;;;;;;;136.30;23.18;;;;;;;2.96;79.22;101663.03;1701028;83;21487;-74
2022/11/12 01:17:27;;;;;;;103.87;21.45;;;;;;;2.92;79.11;101650.98;1707262;82;21011;-74
2022/11/12 01:20:12;;;;;;;111.95;22.32;;;;;;;2.86;79.04;101653.30;1709026;82;21072;-73
2022/11/12 01:22:57;;;;;;;78.78;20.40;;;;;;;2.81;79.01;101656.05;1711421;82;21850;-73
2022/11/12 01:25:42;;;;;;;86.00;19.32;;;;;;;2.75;78.97;101654.89;1692454;82;20964;-73
2022/11/12 01:28:28;;;;;;;131.37;19.40;;;;;;;2.70;78.95;101653.29;1708695;82;21060;-73
2022/11/12 01:31:25;;;;;;;115.60;18.92;;;;;;;2.64;78.98;101654.33;1686966;82;21013;-73
2022/11/12 01:34:10;;;;;;;79.40;19.23;;;;;;;2.58;78.91;101655.33;1711613;82;21044;-73
2022/11/12 01:36:55;;;;;;;54.65;17.80;;;;;;;2.51;78.93;101657.70;1708978;82;22498;-73
2022/11/12 01:39:41;;;;;;;76.12;18.87;;;;;;;2.49;78.98;101658.17;1701781;82;21044;-73
2022/11/12 01:42:30;;;;;;;66.90;19.35;;;;;;;2.49;79.07;101665.99;1699733;82;21063;-73
2022/11/12 01:45:17;;;;;;;93.92;19.67;;;;;;;2.47;79.04;101662.58;1678586;83;21024;-73
2022/11/12 01:48:02;;;;;;;95.90;18.80;;;;;;;2.40;79.00;101666.22;1708923;82;21025;-73
2022/11/12 01:50:48;;;;;;;59.35;21.45;;;;;;;2.35;78.90;101668.11;1716720;82;22401;-73
2022/11/12 01:53:38;;;;;;;93.87;20.32;;;;;;;2.28;78.88;101668.69;1707737;82;21462;-73
2022/11/12 01:56:23;;;;;;;104.15;19.62;;;;;;;2.23;78.82;101672.32;1699155;82;21484;-74
2022/11/12 01:59:13;;;;;;;110.15;20.15;;;;;;;2.15;78.81;101673.80;1701101;82;21459;-73
2022/11/12 02:01:58;;;;;;;99.37;19.12;;;;;;;2.11;78.86;101673.45;1701997;82;20945;-73
2022/11/12 02:04:43;;;;;;;120.02;18.65;;;;;;;2.08;78.94;101677.44;1704538;82;22974;-73
2022/11/12 02:07:28;;;;;;;112.52;18.85;;;;;;;2.08;79.00;101682.65;1707830;82;21044;-74
2022/11/12 02:10:14;;;;;;;111.40;21.07;;;;;;;2.09;79.07;101683.05;1704693;82;21083;-73
2022/11/12 02:16:04;;;;;;;97.75;17.80;;;;;;;2.07;79.11;101693.97;1705196;82;20992;-73
2022/11/12 02:18:51;;;;;;;106.50;17.92;;;;;;;2.04;79.12;101694.05;1707804;82;22479;-73
2022/11/12 02:21:37;;;;;;;109.70;19.70;;;;;;;2.01;79.16;101696.25;1699553;82;20942;-73
2022/11/12 02:24:28;;;;;;;64.58;17.15;;;;;;;1.99;79.18;101701.10;1706604;82;21051;-73
2022/11/12 02:27:13;;;;;;;63.05;15.93;;;;;;;1.97;79.18;101702.89;1703192;82;21016;-73
2022/11/12 02:29:58;;;;;;;95.38;18.12;;;;;;;1.95;79.28;101701.63;1700466;82;20970;-73
2022/11/12 02:32:44;;;;;;;97.55;25.48;;;;;;;1.96;79.33;101702.03;1702843;82;22299;-73
2022/11/12 02:35:29;;;;;;;125.15;29.32;;;;;;;1.95;79.34;101699.47;1710612;82;21040;-73
2022/11/12 02:38:14;;;;;;;108.87;25.25;;;;;;;1.92;79.28;101698.22;1703430;82;20978;-73
2022/11/12 02:40:59;;;;;;;94.13;25.35;;;;;;;1.90;79.29;101691.74;1707242;82;21511;-74
2022/11/12 02:43:44;;;;;;;94.47;23.77;;;;;;;1.88;79.35;101696.58;1712712;82;21098;-74
2022/11/12 02:46:29;;;;;;;102.85;22.30;;;;;;;1.85;79.38;101704.03;1715059;82;22360;-73
2022/11/12 02:49:14;;;;;;;67.37;17.70;;;;;;;1.84;79.45;101698.86;1708011;82;20965;-73
2022/11/12 02:51:59;;;;;;;97.27;20.72;;;;;;;1.85;79.47;101694.05;1709002;82;21044;-73
2022/11/12 02:54:45;;;;;;;87.08;21.68;;;;;;;1.82;79.47;101688.44;1709237;81;20961;-73
2022/11/12 02:57:30;;;;;;;110.15;26.55;;;;;;;1.82;79.57;101694.10;1703774;82;21551;-73
2022/11/12 03:00:17;;;;;;;82.95;27.42;;;;;;;1.81;79.56;101689.78;1702449;82;22556;-73
2022/11/12 03:03:02;;;;;;;77.67;20.02;;;;;;;1.81;79.63;101686.73;1711600;82;21514;-73
2022/11/12 03:05:56;;;;;;;56.85;19.17;;;;;;;1.80;79.64;101692.84;1705588;82;20953;-73
2022/11/12 03:08:42;;;;;;;74.85;19.62;;;;;;;1.77;79.62;101693.36;1705934;82;21009;-73
2022/11/12 03:11:28;;;;;;;54.27;17.07;;;;;;;1.76;79.69;101700.77;1708970;82;20939;-73
2022/11/12 03:14:14;;;;;;;70.50;17.12;;;;;;;1.77;79.75;101706.39;1705445;82;21960;-73
2022/11/12 03:17:01;;;;;;;47.00;18.07;;;;;;;1.75;79.76;101704.27;1712064;82;21398;-73
2022/11/12 03:19:46;;;;;;;64.53;16.70;;;;;;;1.75;79.77;101712.08;1705910;82;21049;-73
2022/11/12 03:22:32;;;;;;;50.15;18.27;;;;;;;1.72;79.78;101711.23;1703590;82;21005;-73
2022/11/12 03:25:18;;;;;;;56.35;21.27;;;;;;;1.70;79.77;101714.32;1705269;82;21028;-73
2022/11/12 03:28:05;;;;;;;69.42;24.32;;;;;;;1.68;79.79;101705.69;1700663;82;22453;-72
2022/11/12 03:30:50;;;;;;;72.22;26.20;;;;;;;1.68;79.79;101707.44;1696726;82;21017;-73
2022/11/12 03:33:36;;;;;;;93.62;24.72;;;;;;;1.66;79.82;101703.57;1708929;82;21057;-72
2022/11/12 03:36:21;;;;;;;44.53;21.05;;;;;;;1.65;79.84;101708.37;1708217;82;21472;-73
2022/11/12 03:39:06;;;;;;;78.85;18.07;;;;;;;1.65;79.86;101704.47;1702405;82;21555;-73
2022/11/12 03:41:51;;;;;;;57.33;17.30;;;;;;;1.62;79.85;101691.93;1707863;82;22810;-73
2022/11/12 03:44:36;;;;;;;48.40;15.58;;;;;;;1.61;79.91;101693.68;1715011;82;21036;-73
2022/11/12 03:47:21;;;;;;;44.03;15.85;;;;;;;1.60;80.00;101699.78;1701341;82;21017;-72
2022/11/12 03:50:09;;;;;;;65.32;17.82;;;;;;;1.61;80.02;101700.19;1715796;82;20986;-73
2022/11/12 03:52:56;;;;;;;46.45;15.55;;;;;;;1.61;80.06;101696.73;1707260;82;21080;-73
2022/11/12 03:55:41;;;;;;;51.73;17.27;;;;;;;1.60;80.10;101697.63;1716642;82;21845;-73
2022/11/12 03:58:26;;;;;;;55.85;16.67;;;;;;;1.61;80.20;101692.38;1720972;82;20948;-73
2022/11/12 04:01:11;;;;;;;48.02;18.30;;;;;;;1.61;80.25;101700.64;1708451;82;21061;-73
2022/11/12 04:03:55;;;;;;;46.25;17.48;;;;;;;1.62;80.31;101699.74;1703070;83;20977;-72
2022/11/12 04:09:46;;;;;;;37.23;16.67;;;;;;;1.63;80.39;101695.80;1721039;82;21857;-72
2022/11/12 04:15:34;;;;;;;65.75;14.73;;;;;;;1.63;80.51;101697.55;1697858;83;21440;-73
2022/11/12 04:27:42;;;;;;;41.42;15.43;;;;;;;1.60;80.58;101706.29;1707692;82;21024;-74
2022/11/12 04:30:27;;;;;;;49.48;14.55;;;;;;;1.62;80.62;101709.71;1703839;82;21098;-74
2022/11/12 04:33:12;;;;;;;34.40;13.93;;;;;;;1.62;80.62;101712.31;1715458;82;20996;-74
2022/11/12 04:35:58;;;;;;;25.88;12.45;;;;;;;1.60;80.63;101712.80;1700930;82;21075;-74
2022/11/12 04:38:43;;;;;;;49.03;12.85;;;;;;;1.59;80.64;101712.39;1704633;82;21840;-74
2022/11/12 04:47:39;;;;;;;67.15;12.85;;;;;;;1.61;80.81;101714.96;1698351;82;20985;-73
2022/11/12 04:50:23;;;;;;;44.15;12.20;;;;;;;1.63;80.82;101721.84;1700486;82;21476;-73
2022/11/12 04:53:08;;;;;;;53.35;11.43;;;;;;;1.64;80.87;101720.09;1706121;82;21862;-73
2022/11/12 04:55:55;;;;;;;62.70;12.10;;;;;;;1.64;80.94;101725.30;1704774;82;21037;-73
2022/11/12 04:58:41;;;;;;;43.95;12.28;;;;;;;1.63;80.90;101718.38;1702453;82;21057;-73
2022/11/12 05:01:26;;;;;;;82.10;12.65;;;;;;;1.62;80.88;101715.37;1709221;82;21025;-73
2022/11/12 05:04:11;;;;;;;100.55;12.78;;;;;;;1.59;80.91;101715.44;1703675;82;21021;-73
2022/11/12 05:06:57;;;;;;;78.02;11.80;;;;;;;1.60;81.01;101710.64;1711932;82;22561;-74
2022/11/12 05:09:42;;;;;;;97.92;12.43;;;;;;;1.61;81.04;101714.52;1707957;82;21052;-74
2022/11/12 05:12:27;;;;;;;79.10;11.03;;;;;;;1.62;81.10;101720.58;1703596;82;20973;-74
2022/11/12 05:15:11;;;;;;;52.15;10.28;;;;;;;1.63;81.09;101716.64;1705748;82;21060;-73
2022/11/12 05:17:57;;;;;;;53.13;11.05;;;;;;;1.65;81.11;101721.39;1716127;82;20968;-74
2022/11/12 05:20:43;;;;;;;23.40;9.78;;;;;;;1.64;81.13;101713.58;1706145;82;21959;-74
2022/11/12 05:23:28;;;;;;;69.07;10.32;;;;;;;1.64;81.16;101718.80;1705157;82;20965;-74
2022/11/12 05:26:13;;;;;;;73.92;10.48;;;;;;;1.62;81.16;101713.62;1704696;82;21065;-74
2022/11/12 05:28:58;;;;;;;64.75;10.18;;;;;;;1.60;81.23;101716.70;1705618;82;20996;-73
2022/11/12 05:31:44;;;;;;;80.65;9.85;;;;;;;1.60;81.25;101721.92;1706244;82;20993;-74
2022/11/12 05:34:29;;;;;;;41.95;9.63;;;;;;;1.61;81.32;101719.72;1711755;82;21960;-73
2022/11/12 05:37:15;;;;;;;59.88;9.75;;;;;;;1.63;81.40;101715.33;1708876;82;20957;-73
2022/11/12 05:40:00;;;;;;;90.38;11.10;;;;;;;1.64;81.44;101718.37;1726756;82;21096;-74
2022/11/12 05:42:45;;;;;;;87.17;11.65;;;;;;;1.63;81.43;101716.64;1723075;82;21058;-74
2022/11/12 05:45:30;;;;;;;73.30;10.68;;;;;;;1.64;81.57;101707.96;1713122;82;21011;-73
2022/11/12 05:48:15;;;;;;;177.85;13.78;;;;;;;1.65;81.63;101707.06;1724893;82;21860;-73
2022/11/12 05:51:02;;;;;;;113.28;11.70;;;;;;;1.67;81.68;101698.77;1723237;82;21536;-73
2022/11/12 05:53:47;;;;;;;110.52;12.90;;;;;;;1.70;81.84;101701.30;1717907;82;21570;-75
2022/11/12 05:56:33;;;;;;;68.97;10.72;;;;;;;1.76;81.88;101704.67;1720527;82;21023;-75
2022/11/12 05:59:18;;;;;;;29.00;9.83;;;;;;;1.78;81.94;101712.86;1715808;82;21093;-72
2022/11/12 06:02:04;;;;;;;39.38;10.58;;;;;;;1.82;82.03;101709.73;1715952;82;21867;-75
2022/11/12 06:04:48;;;;;;;30.08;10.03;;;;;;;1.83;82.07;101716.20;1709003;82;20941;-75
2022/11/12 06:07:33;;;;;;;53.95;11.68;;;;;;;1.84;82.13;101709.28;1718877;82;21093;-76
2022/11/12 06:10:18;;;;;;;71.80;12.45;;;;;;;1.84;82.21;101707.98;1711999;82;21854;-72
2022/11/12 06:13:03;;;;;;;20.12;11.40;;;;;;;1.90;82.40;101714.33;1710361;82;21012;-73
2022/11/12 06:15:51;;;;;;;135.95;15.53;;;;;;;1.94;82.49;101708.18;1730414;82;21961;-73
2022/11/12 06:18:37;;;;;;;74.75;14.28;;;;;;;1.97;82.62;101705.05;1708002;82;21056;-75
2022/11/12 06:21:22;;;;;;;33.95;11.78;;;;;;;2.04;82.76;101706.23;1707079;82;20993;-74
2022/11/12 06:24:09;;;;;;;36.28;11.60;;;;;;;2.12;82.87;101706.88;1697138;83;20985;-74
2022/11/12 06:26:53;;;;;;;12.63;10.20;;;;;;;2.19;83.00;101704.55;1686658;84;21053;-74
2022/11/12 06:29:38;;;;;;;23.40;12.18;;;;;;;2.27;83.14;101707.84;1669594;84;21872;-74
2022/11/12 06:32:24;;;;;;;20.02;12.45;;;;;;;2.33;83.22;101711.61;1677576;83;21059;-74
2022/11/12 06:35:09;;;;;;;20.02;12.60;;;;;;;2.41;83.37;101706.19;1669627;84;21060;-75
2022/11/12 06:37:54;;;;;;;20.30;12.40;;;;;;;2.50;83.55;101701.61;1652368;84;21620;-72
2022/11/12 06:40:40;;;;;;;12.47;11.18;;;;;;;2.63;83.71;101699.56;1670418;84;21511;-73
2022/11/12 06:43:26;;;;;;;13.38;11.43;;;;;;;2.71;83.79;101700.69;1663260;84;22653;-73
2022/11/12 06:46:15;;;;;;;16.20;11.55;;;;;;;2.78;83.88;101708.28;1683320;83;21301;-76
2022/11/12 06:49:00;;;;;;;14.38;11.53;;;;;;;2.88;84.01;101704.99;1692323;83;21524;-73
2022/11/12 06:51:46;;;;;;;13.98;11.68;;;;;;;2.97;84.11;101703.89;1681606;84;21029;-74
2022/11/12 06:54:31;;;;;;;13.62;10.95;;;;;;;3.05;84.18;101699.33;1683357;83;21906;-73
2022/11/12 06:57:17;;;;;;;13.25;11.48;;;;;;;3.13;84.28;101696.06;1720419;81;22498;-75
2022/11/12 07:00:04;;;;;;;13.32;10.68;;;;;;;3.21;84.35;101705.00;1727344;81;21071;-76
2022/11/12 07:02:49;;;;;;;12.25;10.60;;;;;;;3.30;84.45;101711.27;1725127;81;21043;-75
2022/11/12 07:05:37;;;;;;;12.73;10.82;;;;;;;3.39;84.58;101700.12;1723540;81;21017;-81
2022/11/12 07:08:22;;;;;;;12.23;10.23;;;;;;;3.51;84.74;101700.21;1726035;81;21051;-80
2022/11/12 07:11:08;;;;;;;14.20;11.12;;;;;;;3.61;84.82;101696.43;1719276;81;21872;-78
2022/11/12 07:13:52;;;;;;;13.48;11.53;;;;;;;3.74;84.99;101700.38;1718132;81;21509;-80
2022/11/12 07:16:38;;;;;;;13.93;10.70;;;;;;;3.87;85.12;101699.58;1717384;81;21033;-83
2022/11/12 07:19:24;;;;;;;14.20;11.48;;;;;;;4.01;85.28;101704.37;1721090;81;21057;-77
2022/11/12 07:22:09;;;;;;;12.25;10.55;;;;;;;4.12;85.29;101702.27;1721239;81;21440;-77
2022/11/12 07:24:55;;;;;;;14.23;10.75;;;;;;;4.23;85.39;101705.85;1728652;81;21977;-76
2022/11/12 07:27:40;;;;;;;13.50;10.88;;;;;;;4.37;85.51;101696.27;1729858;81;21129;-76
2022/11/12 07:30:26;;;;;;;12.82;11.03;;;;;;;4.51;85.60;101699.27;1725919;81;20960;-73
2022/11/12 07:33:12;;;;;;;15.10;12.20;;;;;;;4.68;85.83;101700.03;1694283;81;21094;-73
2022/11/12 07:36:05;;;;;;;17.50;11.70;;;;;;;4.87;86.04;101695.88;1723760;83;21421;-73
2022/11/12 07:38:51;;;;;;;14.38;11.45;;;;;;;5.08;86.32;101695.12;1723662;83;21897;-73
2022/11/12 07:41:36;;;;;;;15.98;12.50;;;;;;;5.32;86.55;101699.09;1718432;83;20945;-73
2022/11/12 07:44:22;;;;;;;14.47;11.22;;;;;;;5.47;86.45;101697.20;1723466;83;20979;-73
2022/11/12 07:47:06;;;;;;;14.30;11.30;;;;;;;5.61;86.44;101688.39;1723435;83;20969;-73
2022/11/12 07:49:53;;;;;;;13.72;11.45;;;;;;;5.75;86.43;101679.52;1723190;83;21051;-72
2022/11/12 07:52:39;;;;;;;13.98;11.25;;;;;;;5.87;86.27;101682.13;1694478;83;22602;-72
2022/11/12 07:55:24;;;;;;;16.87;12.58;;;;;;;5.99;86.22;101674.29;1694510;84;21465;-72
2022/11/12 07:58:09;;;;;;;17.17;12.13;;;;;;;6.14;86.23;101677.59;1708656;81;20999;-72
2022/11/12 08:00:54;;;;;;;16.65;12.43;;;;;;;6.30;86.26;101681.31;1728679;81;20996;-72
2022/11/12 08:03:39;;;;;;;17.80;12.93;;;;;;;6.49;86.28;101670.06;1717576;83;21004;-72
2022/11/12 08:06:25;;;;;;;17.92;12.75;;;;;;;6.69;86.40;101666.59;1717606;83;22009;-72
2022/11/12 08:09:10;;;;;;;19.20;12.33;;;;;;;6.86;86.24;101655.77;1723927;81;21045;-71
2022/11/12 08:11:56;;;;;;;14.47;11.50;;;;;;;7.05;86.24;101657.13;1722481;83;21055;-72
2022/11/12 08:14:43;;;;;;;17.70;11.75;;;;;;;7.28;86.38;101653.92;1717538;83;21055;-72
2022/11/12 08:17:27;;;;;;;14.90;11.83;;;;;;;7.50;86.39;101650.69;1717672;83;21403;-71
2022/11/12 08:20:13;;;;;;;16.07;11.00;;;;;;;7.78;86.27;101652.04;1718768;83;22055;-72
2022/11/12 08:22:59;;;;;;;12.90;10.10;;;;;;;7.99;86.01;101651.00;1722049;83;20970;-72
2022/11/12 08:25:44;;;;;;;13.40;9.80;;;;;;;8.21;85.79;101646.89;1724272;81;21376;-72
2022/11/12 08:28:31;;;;;;;14.60;9.75;;;;;;;8.38;85.28;101647.37;1723737;83;21448;-72
2022/11/12 08:31:20;;;;;;;15.88;9.83;;;;;;;8.56;84.87;101651.72;1719342;83;21004;-72
2022/11/12 08:34:10;;;;;;;13.28;9.80;;;;;;;8.74;84.40;101638.94;1693873;83;21868;-71
2022/11/12 08:36:52;;;;;;;12.13;8.53;;;;;;;8.92;83.81;101645.03;1717493;83;21004;-73
2022/11/12 08:39:38;;;;;;;12.43;8.53;;;;;;;9.09;83.22;101645.02;1661129;83;20964;-73
2022/11/12 08:42:23;;;;;;;11.22;7.10;;;;;;;9.31;82.88;101652.61;1710768;81;21006;-72
2022/11/12 08:45:09;;;;;;;11.43;6.42;;;;;;;9.52;81.38;101647.95;1723728;83;21393;-72
2022/11/12 08:48:00;;;;;;;10.65;5.87;;;;;;;9.71;80.34;101639.41;1723614;83;21960;-72
2022/11/12 08:50:47;;;;;;;9.38;6.08;;;;;;;9.92;78.84;101649.70;1723396;83;20936;-72
2022/11/12 08:53:32;;;;;;;9.88;5.78;;;;;;;10.08;77.62;101639.14;1723051;81;21459;-73
2022/11/12 08:56:17;;;;;;;10.85;5.78;;;;;;;10.24;76.38;101630.77;1723683;83;20956;-72
2022/11/12 08:59:02;;;;;;;10.38;5.78;;;;;;;10.41;75.26;101631.08;1724846;81;21037;-72
2022/11/12 09:01:47;;;;;;;9.53;5.67;;;;;;;10.55;73.62;101630.66;1718221;83;22266;-72
2022/11/12 09:04:33;;;;;;;11.22;6.03;;;;;;;10.64;72.50;101618.70;1717380;83;21538;-72
2022/11/12 09:07:18;;;;;;;10.35;5.33;;;;;;;10.77;72.04;101614.83;1717680;83;20980;-72
2022/11/12 09:10:04;;;;;;;11.00;5.90;;;;;;;10.89;71.62;101618.89;1718484;83;21012;-72
2022/11/12 09:12:51;;;;;;;12.90;6.85;;;;;;;11.07;71.36;101618.24;1723665;83;21522;-72
2022/11/12 09:15:36;;;;;;;9.68;5.72;;;;;;;11.22;70.33;101612.48;1729429;81;21854;-72
2022/11/12 09:18:22;;;;;;;12.78;7.17;;;;;;;11.35;68.55;101616.53;1756294;81;20992;-72
2022/11/12 09:21:10;;;;;;;9.98;5.75;;;;;;;11.47;68.56;101608.66;1737163;81;20969;-72
2022/11/12 09:23:56;;;;;;;11.12;6.20;;;;;;;11.65;67.71;101615.05;1723697;83;21063;-72
2022/11/12 09:26:42;;;;;;;14.38;6.35;;;;;;;11.77;66.52;101614.25;1723693;83;21004;-72
2022/11/12 09:29:27;;;;;;;8.38;5.10;;;;;;;11.87;66.00;101611.89;1723671;83;22260;-72
2022/11/12 09:32:13;;;;;;;12.10;6.58;;;;;;;12.00;65.29;101603.55;1718481;81;21012;-72
2022/11/12 09:34:57;;;;;;;12.58;7.47;;;;;;;12.14;64.87;101597.33;1723860;83;21472;-72
2022/11/12 09:37:42;;;;;;;11.88;6.42;;;;;;;12.27;64.86;101586.30;1691951;83;21132;-73
2022/11/12 09:40:52;;;;;;;12.03;6.58;;;;;;;12.46;64.54;101582.78;1723579;83;21355;-72
2022/11/12 09:43:43;;;;;;;9.90;5.62;;;;;;;12.65;64.04;101586.83;1723608;82;21869;-72
2022/11/12 09:46:56;;;;;;;10.98;6.10;;;;;;;12.86;63.60;101577.38;1719538;83;20965;-72
2022/11/12 09:49:58;;;;;;;12.93;6.65;;;;;;;13.03;62.68;101585.01;1720515;82;21024;-72
2022/11/12 09:52:45;;;;;;;10.78;5.85;;;;;;;13.15;61.94;101577.50;1685000;83;20989;-72
2022/11/12 09:55:47;;;;;;;10.70;6.28;;;;;;;13.25;61.56;101566.27;1700885;83;21047;-72
2022/11/12 09:58:32;;;;;;;15.40;8.10;;;;;;;13.38;61.51;101581.18;1727073;82;21964;-72
2022/11/12 10:02:08;;;;;;;9.55;5.90;;;;;;;13.48;60.47;101582.69;1748771;81;20960;-72
2022/11/12 10:05:14;;;;;;;13.70;6.22;;;;;;;13.51;60.23;101575.86;1736408;82;21004;-72
2022/11/12 10:08:28;;;;;;;10.68;6.50;;;;;;;13.61;59.64;101572.90;1713419;82;21155;-72
2022/11/12 10:18:47;;;;;;;10.90;6.30;;;;;;;13.84;58.21;101574.33;1699026;83;21060;-72
2022/11/12 10:21:57;;;;;;;12.73;5.95;;;;;;;13.89;58.38;101572.16;1713545;83;21053;-72
2022/11/12 10:24:42;;;;;;;11.97;7.08;;;;;;;13.98;58.32;101567.50;1728470;82;21039;-74
2022/11/12 10:27:31;;;;;;;13.80;6.80;;;;;;;14.13;58.32;101564.19;1713753;83;20961;-72
2022/11/12 10:30:19;;;;;;;10.68;5.62;;;;;;;14.31;57.64;101566.30;1713792;83;22345;-73
2022/11/12 10:33:04;;;;;;;10.65;6.10;;;;;;;14.32;57.10;101554.70;1713621;83;21001;-72
2022/11/12 10:35:50;;;;;;;11.83;5.97;;;;;;;14.40;56.94;101557.27;1709603;83;21040;-72
2022/11/12 10:38:35;;;;;;;8.60;5.50;;;;;;;14.48;56.36;101546.92;1713257;83;21016;-75
2022/11/12 10:41:25;;;;;;;12.78;6.10;;;;;;;14.46;56.43;101544.36;1711767;82;21004;-72
2022/11/12 10:44:13;;;;;;;9.45;6.42;;;;;;;14.53;56.51;101543.41;1724713;82;21859;-71
2022/11/12 10:47:29;;;;;;;11.45;5.90;;;;;;;14.65;56.11;101544.27;1719613;82;21046;-70
2022/11/12 10:50:20;;;;;;;10.88;5.30;;;;;;;14.82;56.90;101546.45;1712875;82;21138;-70
2022/11/12 10:53:09;;;;;;;7.70;5.05;;;;;;;15.10;56.46;101541.13;1710988;83;21059;-73
2022/11/12 10:56:00;;;;;;;10.30;5.05;;;;;;;15.23;55.74;101536.99;1721448;81;21095;-74
2022/11/12 10:58:45;;;;;;;9.95;5.28;;;;;;;15.31;54.76;101534.08;1682159;84;21890;-76
2022/11/12 11:01:31;;;;;;;10.82;5.45;;;;;;;15.24;54.28;101528.87;1684028;84;21211;-75
2022/11/12 11:04:34;;;;;;;7.95;5.10;;;;;;;15.15;54.51;101525.63;1686967;84;20997;-75
2022/11/12 11:07:24;;;;;;;10.20;5.12;;;;;;;15.21;54.87;101524.30;1732008;81;20961;-75
2022/11/12 11:10:23;;;;;;;11.65;5.47;;;;;;;15.38;54.73;101521.97;1718674;82;21134;-74
2022/11/12 11:13:21;;;;;;;7.97;4.70;;;;;;;15.59;54.68;101521.18;1703222;83;22602;-75
2022/11/12 11:16:09;;;;;;;6.33;4.58;;;;;;;15.70;52.92;101519.34;1697093;83;21035;-74
2022/11/12 11:19:04;;;;;;;8.65;4.42;;;;;;;15.69;53.45;101520.32;1716908;82;21082;-74
2022/11/12 11:21:57;;;;;;;7.33;4.47;;;;;;;15.84;52.83;101508.89;1718869;82;21108;-75
2022/11/12 11:24:47;;;;;;;;;;;;;;;15.96;52.82;101513.19;1695316;83;21051;-74
2022/11/12 11:27:55;;;;;;;6.37;3.55;;;;;;;16.10;51.21;101521.83;1659678;85;21852;-75
2022/11/12 11:30:55;;;;;;;7.35;4.17;;;;;;;16.10;51.26;101517.83;1654155;85;21079;-76
2022/11/12 11:34:08;;;;;;;6.58;4.10;;;;;;;16.09;50.80;101514.32;1643724;86;21321;-75
2022/11/12 11:37:08;;;;;;;7.47;4.08;;;;;;;16.06;51.19;101507.09;1667014;84;21146;-80
2022/11/12 11:40:21;;;;;;;7.55;4.28;;;;;;;16.11;51.18;101500.86;1667528;85;21176;-78
2022/11/12 11:43:30;;;;;;;8.40;4.12;;;;;;;16.14;51.49;101501.47;1673152;84;21471;-76
2022/11/12 11:46:33;;;;;;;7.62;4.53;;;;;;;16.10;51.42;101494.69;1680858;85;21006;-78
2022/11/12 11:50:06;;;;;;;8.10;4.45;;;;;;;16.17;51.59;101497.20;1672082;83;21559;-79
2022/11/12 11:53:17;;;;;;;8.75;4.85;;;;;;;16.21;50.99;101496.44;1635424;86;21085;-79
2022/11/12 11:56:07;;;;;;;7.97;4.92;;;;;;;16.06;51.65;101495.94;1635626;86;21150;-78
2022/11/12 11:59:12;;;;;;;8.85;4.80;;;;;;;16.03;51.52;101493.05;1682129;84;21862;-77
2022/11/12 12:02:33;;;;;;;12.43;5.40;;;;;;;16.01;51.68;101484.31;1681101;84;21408;-82
2022/11/12 12:05:48;;;;;;;8.95;5.20;;;;;;;16.12;51.78;101487.92;1684354;83;21394;-83
2022/11/12 12:09:19;;;;;;;9.53;4.80;;;;;;;16.31;51.42;101488.03;1657852;85;20992;-83
2022/11/12 12:12:28;;;;;;;9.83;5.05;;;;;;;16.36;51.23;101484.96;1654156;86;21673;-84
2022/11/12 12:15:48;;;;;;;6.95;4.60;;;;;;;16.51;51.21;101477.83;1654901;85;21870;-85
2022/11/12 12:19:00;;;;;;;7.30;4.87;;;;;;;16.54;50.89;101472.22;1655954;86;21083;-83
2022/11/12 12:21:47;;;;;;;9.85;5.55;;;;;;;16.57;50.53;101479.94;1651977;85;21097;-80
2022/11/12 12:24:44;;;;;;;10.23;5.83;;;;;;;16.40;50.71;101478.38;1638979;85;21052;-80
2022/11/12 12:27:34;;;;;;;11.15;5.72;;;;;;;16.33;50.54;101479.41;1661073;85;21659;-78
2022/11/12 12:30:22;;;;;;;10.85;5.90;;;;;;;16.16;50.90;101466.67;1637290;85;21756;-82
2022/11/12 12:33:29;;;;;;;10.00;5.97;;;;;;;16.01;51.42;101470.15;1640015;86;21602;-80
2022/11/12 12:36:17;;;;;;;9.48;5.12;;;;;;;15.95;51.57;101473.35;1650226;85;21025;-78
2022/11/12 12:39:25;;;;;;;14.87;5.47;;;;;;;15.88;51.65;101474.34;1657183;85;21048;-75
2022/11/12 12:42:19;;;;;;;13.62;5.95;;;;;;;15.92;51.86;101470.47;1653607;85;21376;-75
2022/11/12 12:45:25;;;;;;;9.95;5.40;;;;;;;16.05;51.75;101472.92;1654037;85;21872;-75
2022/11/12 12:48:23;;;;;;;11.38;5.62;;;;;;;16.10;51.98;101473.36;1666102;84;21060;-74
2022/11/12 12:51:09;;;;;;;10.15;5.53;;;;;;;16.20;51.65;101470.27;1678395;84;21081;-75
2022/11/12 12:53:55;;;;;;;10.93;6.97;;;;;;;16.29;51.07;101467.30;1675267;84;21597;-77
2022/11/12 12:56:44;;;;;;;8.63;5.70;;;;;;;16.14;51.22;101467.30;1727598;81;20979;-75
2022/11/12 12:59:30;;;;;;;8.65;5.30;;;;;;;16.14;51.47;101459.31;1729334;82;22920;-74
2022/11/12 13:02:20;;;;;;;11.70;5.45;;;;;;;16.15;51.11;101465.84;1710516;81;21455;-76
2022/11/12 13:05:05;;;;;;;8.50;5.03;;;;;;;16.05;51.29;101458.27;1713014;82;21089;-75
2022/11/12 13:07:51;;;;;;;10.35;5.58;;;;;;;16.08;51.51;101457.16;1731185;81;21052;-75
2022/11/12 13:10:47;;;;;;;11.63;5.37;;;;;;;16.10;51.09;101454.70;1722128;81;20985;-77
2022/11/12 13:13:36;;;;;;;9.93;5.10;;;;;;;16.06;51.25;101453.78;1712751;81;21072;-75
2022/11/12 13:16:52;;;;;;;11.63;6.28;;;;;;;16.03;51.25;101454.90;1727471;81;21515;-75
2022/11/12 13:19:56;;;;;;;13.93;7.85;;;;;;;15.95;51.36;101452.03;1726667;81;21033;-76
2022/11/12 13:22:49;;;;;;;12.88;8.30;;;;;;;15.85;51.57;101449.80;1715089;82;21088;-75
2022/11/12 13:25:35;;;;;;;11.73;7.83;;;;;;;15.71;51.97;101446.95;1722951;81;37625;-76
2022/11/12 13:28:20;;;;;;;9.58;5.90;;;;;;;15.61;52.21;101445.53;1722092;81;22033;-75